Biel Navarro

Olheiro - Oviedo
22 Fev 2027
Segunda-feira
Processo

Personalidade

Adaptabilidade (10) Ambição (16) Controvérsia (13) Lealdade (15) Pressão (1) Profissionalismo (9) Espírito Esportivo (6) Temperamento (8)

Perfil

Estilo de Treinamento Democrático
Licença Nacional B
Determinação 9
Gestão de Pessoas 9
Motivação 12
Disciplina 9
Satisfação no Trabalho
50%
Fadiga
0%
Função Olheiro
Salário 70.7K p/s
Contrato 14.03.2028

Desempenho

Comportamento Normal
Eficácia do Treinamento
23%
Desenvolvimento do Jogador
65%
Prevenção de Lesões
30%
Implementação Tática
55%

Eventos Recentes

Participou de uma reunião de recrutamento agora
Recomendou um alvo de transferência agora
Recomendou um alvo de transferência agora
Observou uma partida agora
Observou uma partida agora
Observou uma partida 7d atrás
Observou uma partida 7d atrás
Observou uma partida 7d atrás

Monitorando agora

52
Jogador Clube Status Habilidade Confiança Observado Última observação Último voto
Selton Athletic Bilbao Ativo 105 / 114 69% 1 18.01.2027 Aprovar
Tobías Pantoja Central Norte Ativo 94 / 99 40% 3 30.12.2026 -
Elis Bishesari IFK Goteborg Ativo 108 / 117 40% 1 30.12.2026 -
Maxim Shichanin Zenit Ativo 98 / 99 40% 1 30.12.2026 -
Luca Martelli Forli Ativo 81 / 99 40% 2 29.12.2026 -
Dylan Gorosito Boca Juniors Ativo 108 / 117 40% 3 28.12.2026 -
Rodrigo Arnay Güemes Ativo 96 / 91 40% 1 28.12.2026 -
Nacer Tielemans Mouscron Ativo 137 / 144 40% 1 28.12.2026 -
Eliás Montiel Pachuca Ativo 131 / 125 40% 2 26.12.2026 -
Kyriani Sabbe Club Brugge Ativo 120 / 120 40% 1 25.12.2026 -
Nicolás Ortiz Platense Ativo 97 / 107 40% 1 25.12.2026 -
Lucas Bersce Nueva Chicago Ativo 99 / 104 40% 2 23.12.2026 -
Santiago Garro Almirante Brown Ativo 95 / 93 40% 1 23.12.2026 -
Alejandro Almaraz Nueva Chicago Ativo 105 / 117 40% 2 22.12.2026 -
Matthieu Epolo Standard Liege Ativo 121 / 125 40% 3 22.12.2026 -
Cemran Dansin Orlando Pirates Ativo 104 / 114 40% 2 22.12.2026 -
Ramiro Centurión San Lorenzo Ativo 89 / 98 40% 1 22.12.2026 -
Obed Vargas Atlético Madrid Ativo 115 / 124 40% 2 20.12.2026 -
José Pachuca Puebla Ativo 103 / 105 40% 2 20.12.2026 -
Guillermo Oroño Atenas Ativo 91 / 90 40% 1 20.12.2026 -
Matías Molina Independiente Ativo 91 / 99 40% 2 18.12.2026 -
Edoardo Motta Lazio Ativo 120 / 133 40% 4 17.12.2026 -
Mattia Ciancaglini Almagro Ativo 92 / 108 40% 5 17.12.2026 -
Juan Fernándes Pinto Almagro Ativo 102 / 103 40% 2 16.12.2026 -
Enzo Cardozo Almirante Brown Ativo 102 / 104 40% 1 16.12.2026 -
Pierce Charles Manchester City Ativo 116 / 121 40% 2 09.12.2026 -
Mateo Raschia Unión de Santa Fe Ativo 95 / 90 40% 1 02.12.2026 -
Juan Ignacio Berasi Colón Ativo 88 / 90 40% 1 29.11.2026 -
Santino Barbi Talleres Ativo 118 / 117 40% 1 27.11.2026 -
Brandon Gómez San Telmo Ativo 80 / 97 40% 1 24.11.2026 -
João Muniz Sporting CP Ativo 115 / 121 40% 1 23.11.2026 -
Joaquin Seys Club Brugge Ativo 120 / 127 40% 1 22.11.2026 -
Ignacio Perruzzi San Lorenzo Ativo 124 / 127 40% 2 20.11.2026 -
Felipe Igón Racing Club Ativo 88 / 97 40% 2 20.11.2026 -
Honest Ahanor Atalanta Ativo 120 / 140 40% 1 20.11.2026 -
Pablo Aguiar Gimnasia La Plata Ativo 97 / 110 40% 1 20.11.2026 -
Mamour N'Diaye Sarpsborg 08 Ativo 105 / 107 40% 1 20.11.2026 -
Viktor Baier Viktoria Plzen Ativo 108 / 122 40% 2 14.11.2026 -
Santiago Ferez Belgrano Ativo 88 / 98 40% 1 14.11.2026 -
Román Zalazar Nueva Chicago Ativo 93 / 89 40% 1 08.11.2026 -
Román Herrera Atlanta Ativo 101 / 106 40% 1 08.11.2026 -
Jakub Badžgoň MSK Zilina Ativo 108 / 103 40% 1 04.11.2026 -
Marcos Ferreira Getafe Ativo 104 / 104 40% 1 03.11.2026 -
Jaydee Canvot Crystal Palace Ativo 130 / 140 40% 2 14.10.2026 -
Felipe Schaare Racing Club Ativo 101 / 96 40% 1 14.10.2026 -
Samuel Chamorro Morón Ativo 98 / 103 40% 1 14.10.2026 -
Camilo Rey Domenech Boca Juniors Ativo 106 / 116 40% 1 13.10.2026 -
Sergio Quintero La Equidad Ativo 130 / 133 40% 2 07.10.2026 -
Jair Nottingham Forest Ativo 122 / 133 40% 1 24.08.2026 -
Francisco Razzeto Sarmiento Ativo 93 / 103 40% 1 24.08.2026 -
José Campaña Ceuta Ativo 123 / 127 69% 1 03.08.2026 Aprovar
José Cavadia America de Cali Ativo 103 / 117 40% 1 03.08.2026 -